Latest Coastal Weather Observations for Cape Sorell

IDT60701

Issued at 11:51 pm EST Saturday 28 May 2016 (issued every 10 minutes, with the page automatically refreshed every 10 minutes)

About coastal observations | Map of coastal stations | Coastal observations for TAS | Marine services | Other Formats
Station Details ID: 097000 Name: CAPE SORELL Lat: -42.20 Lon: 145.17 Height: 19.3 m
Data from the previous 72 hours. | See also: Recent months at Cape Sorell
Date/Time
EST
Temp

°C
Wind Pressure Rain
since 9am
mm
Weather Cloud Vis
km
Sea
Height
m
Swell
Dir
 
Speed
knots
Gust
knots
hPa Trend Height
m
Period
s
Dir
28/11:30pm 10.2 S 10 17 1012.5 - 19.4 - - - - - - -
28/11:00pm 8.6 SE 6 9 1012.4 - 17.8 - - - - - - -
28/10:30pm 9.2 SSE 7 11 1012.4 - 17.8 - - - - - - -
28/10:00pm 9.5 SSE 9 12 1012.3 - 17.8 - - - - - - -
28/09:30pm 9.8 S 8 11 1012.3 - 17.0 - - - - - - -
28/09:00pm 9.6 SSE 7 10 1012.1 - 15.6 Recent precip. - - - - - -
28/08:30pm 9.7 SSE 9 12 1011.8 - 15.4 - - - - - - -
28/08:00pm 10.3 SSW 13 16 1011.4 - 12.4 - - - - - - -
28/07:30pm 10.6 S 13 17 1011.1 - 10.6 - - - - - - -
28/07:00pm 9.8 SSE 5 8 1010.7 - 10.0 - - - - - - -
28/06:30pm 9.8 ESE 7 10 1010.4 - 9.0 - - - - - - -
28/06:07pm 11.2 S 20 26 1009.9 - 8.2 - - - - - - -
28/06:00pm 11.6 SSW 21 24 1009.3 - 8.2 Recent precip. - - - - - -
28/05:30pm 11.2 SSW 20 23 1008.9 - 8.2 - - - - - - -
28/05:00pm 11.2 SSW 21 25 1008.7 - 8.0 - - - - - - -
28/04:30pm 11.2 SSW 18 21 1008.6 - 8.0 - - - - - - -
28/04:29pm 11.2 SSW 18 21 1008.6 - 8.0 - - - - - - -
28/04:00pm 10.6 SW 20 26 1008.3 - 7.8 - - - - - - -
28/03:30pm 11.3 SSW 19 24 1007.9 - 7.8 - - - - - - -
28/03:00pm 11.5 SSW 21 25 1007.5 - 7.8 Recent precip. - - - - - -
28/02:30pm 11.7 SW 24 28 1007.3 - 7.8 - - - - - - -
28/02:00pm 9.8 SSW 21 35 1007.6 - 7.0 - - - - - - -
28/01:52pm 11.4 SSW 21 34 1007.2 - 6.2 - - - - - - -
28/01:30pm 11.5 SW 24 29 1007.1 - 6.2 - - - - - - -
28/01:00pm 10.9 SW 19 26 1007.5 - 6.2 - - - - - - -
28/12:54pm 10.4 SW 11 26 1007.7 - 6.0 - - - - - - -
28/12:30pm 10.1 W 5 12 1008.2 - 3.6 - - - - - - -
28/12:00pm 10.1 N 5 8 1008.6 - 1.6 Recent precip. - - - - - -
28/11:30am 9.6 N 3 3 1009.1 - 1.4 - - - - - - -
28/11:00am 9.5 N 5 7 1009.4 - 1.0 - - - - - - -
28/10:30am 9.3 NNE 5 7 1009.5 - 0.6 - - - - - - -
28/10:00am 9.1 N 6 7 1009.2 - 0.2 - - - - - - -
28/09:30am 9.6 NNE 5 7 1009.3 - 0.0 - - - - - - -
28/09:00am 8.4 NE 6 8 1009.2 - 11.6 Recent precip. - - - - - -
28/08:30am 8.2 ENE 6 8 1009.5 - 10.6 - - - - - - -
28/08:00am 8.3 NE 7 9 1009.2 - 9.6 - - - - - - -
28/07:30am 7.7 ENE 6 8 1009.2 - 8.2 - - - - - - -
28/07:00am 7.5 E 7 9 1008.8 - 7.4 - - - - - - -
28/06:30am 8.5 SW 4 8 1008.9 - 6.0 - - - - - - -
28/06:00am 8.5 NNE 9 11 1008.6 - 4.6 Rain - - - - - -
28/05:30am 8.7 NNE 7 9 1008.4 - 3.6 - - - - - - -
28/05:00am 8.3 NNE 6 7 1008.4 - 3.6 - - - - - - -
28/04:30am 8.5 NE 5 7 1008.5 - 3.6 - - - - - - -
28/04:00am 8.3 NE 5 6 1008.3 - 3.6 - - - - - - -
28/03:30am 8.1 ENE 5 6 1008.4 - 3.4 - - - - - - -
28/03:00am 8.0 ENE 5 5 1008.7 - 3.0 Rain - - - - - -
28/02:30am 7.7 E 3 4 1008.9 - 2.6 - - - - - - -
28/02:00am 7.8 ENE 4 5 1008.8 - 2.4 - - - - - - -
28/01:30am 7.7 ESE 4 7 1008.9 - 1.8 - - - - - - -
28/01:00am 7.5 ENE 4 4 1008.7 - 0.8 - - - - - - -
28/12:30am 7.8 ESE 3 4 1008.8 - 0.8 - - - - - - -
28/12:00am 8.0 SE 4 5 1008.8 - 0.6 Rain - - - - - -
 
Date/Time
EST
Temp

°C
Wind Pressure Rain
since 9am
mm
Weather Cloud Vis
km
Sea
Height
m
Swell
Dir
 
Speed
knots
Gust
knots
hPa Trend Height
m
Period
s
Dir
27/11:30pm 7.9 ESE 5 7 1008.7 - 0.2 - - - - - - -
27/11:00pm 7.8 ESE 7 8 1008.6 - 0.0 - - - - - - -
27/10:30pm 7.4 E 7 8 1008.7 - 0.0 - - - - - - -
27/10:00pm 7.9 ESE 9 11 1008.6 - 0.0 - - - - - - -
27/09:30pm 7.8 ESE 6 8 1008.6 - 0.0 - - - - - - -
27/09:00pm 8.2 ESE 6 8 1008.4 - 0.0 - - - - - - -
27/08:30pm 8.7 ESE 7 8 1008.4 - 0.0 - - - - - - -
27/08:00pm 7.9 ESE 6 8 1008.2 - 0.0 - - - - - - -
27/07:30pm 8.0 SE 5 7 1008.1 - 0.0 - - - - - - -
27/07:00pm 9.3 SE 4 7 1007.9 - 0.0 - - - - - - -
27/06:30pm 10.9 SSW 12 15 1007.6 - 0.0 - - - - - - -
27/06:00pm 10.9 SSW 13 16 1007.2 - 0.0 - - - - - - -
27/05:30pm 10.9 SSW 14 17 1007.1 - 0.0 - - - - - - -
27/05:00pm 10.8 S 10 17 1006.7 - 0.0 - - - - - - -
27/04:30pm 11.3 S 13 18 1006.5 - 0.0 - - - - - - -
27/04:00pm 11.0 S 11 21 1006.3 - 0.0 - - - - - - -
27/03:49pm 11.0 S 12 19 1006.1 - 0.0 - - - - - - -
27/03:30pm 10.6 SE 5 7 1006.2 - 0.0 - - - - - - -
27/03:00pm 11.3 SSE 7 14 1005.8 - 0.0 - - - - - - -
27/02:30pm 11.0 SE 4 8 1005.7 - 0.0 - - - - - - -
27/02:00pm 11.1 ESE 6 9 1005.5 - 0.0 - - - - - - -
27/01:30pm 10.8 ESE 5 8 1005.7 - 0.0 - - - - - - -
27/01:00pm 10.6 ESE 5 7 1005.7 - 0.0 - - - - - - -
27/12:30pm 10.0 ESE 5 7 1005.7 - 0.0 - - - - - - -
27/12:00pm 10.0 SSW 13 15 1005.7 - 0.0 - - - - - - -
27/11:30am 10.9 SE 6 9 1005.9 - 0.0 - - - - - - -
27/11:00am 10.1 SSE 5 8 1005.9 - 0.0 - - - - - - -
27/10:30am 9.5 E 6 8 1005.9 - 0.0 - - - - - - -
27/10:00am 9.8 ESE 3 4 1005.7 - 0.0 - - - - - - -
27/09:30am 8.7 SE 3 5 1005.7 - 0.0 - - - - - - -
27/09:00am 7.8 E 4 5 1005.5 - 2.8 - - - - - - -
27/08:30am 7.8 ESE 4 5 1005.4 - 2.8 - - - - - - -
27/08:00am 8.1 SE 2 3 1005.4 - 2.8 - - - - - - -
27/07:30am 8.3 SE 4 5 1004.9 - 2.6 - - - - - - -
27/07:00am 8.5 SSE 6 9 1004.9 - 2.6 - - - - - - -
27/06:30am 7.8 E 3 4 1004.6 - 2.6 - - - - - - -
27/06:00am 7.9 E 4 4 1004.5 - 2.4 Rain - - - - - -
27/05:30am 7.9 ESE 5 5 1004.4 - 2.2 - - - - - - -
27/05:00am 8.1 E 3 3 1004.4 - 2.2 - - - - - - -
27/04:30am 8.2 E 5 6 1004.4 - 2.0 - - - - - - -
27/04:00am 8.3 SE 4 5 1004.4 - 1.8 - - - - - - -
27/03:30am 8.1 ESE 4 5 1004.2 - 1.8 - - - - - - -
27/03:00am 8.3 ESE 5 7 1004.4 - 1.6 Recent precip. - - - - - -
27/02:30am 8.3 ENE 2 4 1004.4 - 1.4 - - - - - - -
27/02:00am 8.6 SE 4 7 1004.3 - 1.4 - - - - - - -
27/01:30am 8.2 ESE 3 4 1004.0 - 1.2 - - - - - - -
27/01:00am 8.9 SSE 3 5 1003.9 - 1.2 - - - - - - -
27/12:30am 9.1 S 4 7 1004.0 - 1.0 - - - - - - -
27/12:00am 8.0 ESE 6 7 1004.0 - 0.8 - - - - - - -
 
Date/Time
EST
Temp

°C
Wind Pressure Rain
since 9am
mm
Weather Cloud Vis
km
Sea
Height
m
Swell
Dir
 
Speed
knots
Gust
knots
hPa Trend Height
m
Period
s
Dir
26/11:30pm 8.5 ESE 6 8 1004.1 - 0.8 - - - - - - -
26/11:00pm 8.8 SSE 5 10 1004.3 - 0.8 - - - - - - -
26/10:30pm 8.6 SE 9 11 1004.2 - 0.6 - - - - - - -
26/10:00pm 8.2 ESE 6 7 1004.1 - 0.6 - - - - - - -
26/09:30pm 8.4 ESE 7 9 1004.1 - 0.6 - - - - - - -
26/09:00pm 8.6 SE 5 7 1004.0 - 0.6 - - - - - - -
26/08:30pm 8.8 SE 5 7 1003.8 - 0.6 - - - - - - -
26/08:00pm 8.8 ESE 6 7 1003.7 - 0.6 - - - - - - -
26/07:30pm 9.1 ESE 6 7 1003.7 - 0.6 - - - - - - -
26/07:00pm 9.2 ESE 6 7 1003.5 - 0.6 - - - - - - -
26/06:30pm 10.4 SSE 6 14 1003.3 - 0.6 - - - - - - -
26/06:00pm 10.6 SW 10 14 1002.9 - 0.6 - - - - - - -
26/05:30pm 11.0 SSW 17 20 1002.4 - 0.6 - - - - - - -
26/05:00pm 10.9 S 9 14 1002.3 - 0.6 - - - - - - -
26/04:30pm 9.9 ESE 5 7 1002.2 - 0.6 - - - - - - -
26/04:00pm 10.3 SE 5 7 1002.1 - 0.6 - - - - - - -
26/03:30pm 9.8 ESE 6 9 1001.9 - 0.6 - - - - - - -
26/03:00pm 10.3 SE 6 10 1001.9 - 0.4 - - - - - - -
26/02:30pm 10.2 ESE 4 6 1001.8 - 0.4 - - - - - - -
26/02:00pm 10.7 SE 6 9 1001.9 - 0.4 - - - - - - -
26/01:30pm 11.4 SSW 2 5 1002.0 - 0.4 - - - - - - -
26/01:00pm 10.5 NNW 5 10 1002.1 - 0.4 - - - - - - -
26/12:30pm 10.8 E 4 6 1002.2 - 0.0 - - - - - - -
26/12:00pm 10.8 E 5 6 1002.4 - 0.0 - - - - - - -
26/11:30am 10.3 E 5 7 1002.6 - 0.0 - - - - - - -
26/11:00am 10.1 ESE 7 8 1002.6 - 0.0 - - - - - - -
26/10:30am 9.9 ESE 6 8 1002.7 - 0.0 - - - - - - -
26/10:00am 9.6 ESE 6 7 1002.7 - 0.0 - - - - - - -
26/09:30am 9.3 ESE 6 8 1002.9 - 0.0 - - - - - - -
26/09:00am 9.0 E 7 9 1003.0 - 16.8 - - - - - - -
26/08:30am 8.7 ESE 7 10 1003.2 - 16.8 - - - - - - -
26/08:00am 9.0 E 7 11 1003.0 - 16.8 - - - - - - -
26/07:30am 9.4 NE 2 3 1002.9 - 16.8 - - - - - - -
26/07:00am 9.8 NE 2 3 1002.8 - 16.8 - - - - - - -
26/06:30am 9.1 E 6 6 1002.7 - 16.8 - - - - - - -
26/06:00am 9.3 E 6 7 1002.6 - 16.8 Recent precip. - - - - - -
26/05:30am 9.7 ESE 5 6 1002.9 - 16.8 - - - - - - -
26/05:00am 9.8 ENE 5 5 1002.5 - 16.6 - - - - - - -
26/04:30am 10.1 ENE 5 7 1002.4 - 16.6 - - - - - - -
26/04:00am 10.3 ENE 6 6 1002.4 - 16.6 - - - - - - -
26/03:30am 10.5 SE 3 5 1002.6 - 16.6 - - - - - - -
26/03:00am 11.5 SSW 7 10 1002.6 - 16.6 - - - - - - -
26/02:30am 11.2 SW 7 9 1003.0 - 16.6 - - - - - - -
26/02:00am 11.4 SW 8 11 1002.9 - 16.6 - - - - - - -
26/01:30am 11.4 SW 11 12 1002.9 - 16.6 - - - - - - -
26/01:00am 11.7 SW 11 13 1002.9 - 16.6 - - - - - - -
26/12:30am 11.9 SW 12 14 1003.0 - 16.6 - - - - - - -
26/12:00am 11.9 SW 13 17 1003.1 - 16.6 - - - - - - -

Other Formats:

Comma delimited format used in spreadsheet applications
http://www.bom.gov.au/fwo/IDT60701/IDT60701.94974.axf

JavaScript Object Notation format (JSON) in row-major order
http://www.bom.gov.au/fwo/IDT60701/IDT60701.94974.json